• Join FlightAware (Why Join?)
  • Login
  • US Flag 
07:44PM EDT


 

Airport Tracker/Info


-or-


 

Live Flight TrackerFlight Track Log ✈ EJA729 ✈ 01-Jul-2013 ✈ KAPA - KEGE

Flight Track Log - Related Links

Times and Time Zones

All times are in EDT time to prevent confusion due to time zone crossing. See the EJA729 flight status page for this flight to view local times or setup timezone preferences in your user account.

Time Position Orientation Groundspeed Altitude Reporting Facility
EDT Latitude Longitude Course Direction KTS MPH feet Rate Location/Type
08:58AM 39.5333 -104.8667 303° West 199 229 7,600  Level Denver TRACON
08:59AM 39.5667 -104.9333 303° West 240 276 11,500 2,880 Climbing Denver TRACON
09:00AM 39.6000 -105.0167 297° West 315 362 13,100 2,640 Climbing Denver TRACON
09:01AM 39.6667 -105.1167 311° West 380 437 16,600 2,160 Climbing Denver TRACON
09:02AM 39.7481 -105.2758 304° West 396 456 18,000 600 Climbing Denver Center
09:03AM 39.8144 -105.3917 307° West 401 461 18,000  Level Denver Center
09:04AM 39.8772 -105.5058 306° West 394 453 18,000  Level Denver Center
09:05AM 39.9361 -105.6233 303° West 393 452 18,000  Level Denver Center
09:06AM 39.9461 -105.7672 275° West 396 456 18,000  Level Denver Center
09:07AM 39.9578 -105.9056 276° West 389 448 18,000  Level Denver Center
09:08AM 39.9681 -106.0208 277° West 395 455 18,000 -420 Level Denver Center
09:09AM 39.9822 -106.1975 276° West 397 457 17,200 -1,200 Descending Denver Center
09:10AM 39.9944 -106.3253 277° West 375 432 15,600 -1,620 Descending Denver Center
09:11AM 39.9742 -106.4386 257° West 356 410 14,000 -840 Descending Denver Center
09:12AM 39.8956 -106.4867 205° Southwest 326 375 14,000  Level Denver Center
09:13AM 39.8164 -106.5208 198° South 310 357 14,000 -300 Level Denver Center
09:14AM 39.7392 -106.5658 204° Southwest 308 354 13,500 -1,080 Descending Denver Center
09:15AM 39.6881 -106.6525 233° Southwest 300 345 11,900 -1,680 Descending Denver Center
09:16AM 39.6625 -106.7361 248° West 256 295 10,100 -1,800 Descending Denver Center
09:17AM 39.6542 -106.8142 262° West 230 265 8,300 -1,740 Descending Denver Center
09:18AM 39.6458 -106.8853 261° West 185 213 6,600 -1,080 Descending Denver Center
09:19AM 39.6414 -106.9217 261° West 173 199 6,200 -240 Descending Denver Center
09:20AM 39.6389 -106.9189 139° Southeast 116 133 6,200  Level Denver Center